createdAt,value
2017-10-15T00:00:05.228Z,34.75
2017-10-15T00:02:32.721Z,35.17
2017-10-15T00:05:00.265Z,38.60
2017-10-15T00:07:27.800Z,39.03
2017-10-15T00:09:55.335Z,38.03
2017-10-15T00:12:23.289Z,40.00
2017-10-15T00:14:50.764Z,38.67
2017-10-15T00:17:18.244Z,38.00
2017-10-15T00:19:46.075Z,39.27
2017-10-15T00:22:13.541Z,38.40
2017-10-15T00:24:41.014Z,42.97
2017-10-15T00:27:08.592Z,38.47
2017-10-15T00:29:36.276Z,43.00
2017-10-15T00:32:03.755Z,43.00
2017-10-15T00:34:31.375Z,39.80
2017-10-15T00:36:59.032Z,41.20
2017-10-15T00:39:26.590Z,41.00
2017-10-15T00:41:54.124Z,42.67
2017-10-15T00:44:21.604Z,41.40
2017-10-15T00:46:49.553Z,37.83
2017-10-15T00:49:17.143Z,37.67
2017-10-15T00:51:44.779Z,41.80
2017-10-15T00:54:12.225Z,43.80
2017-10-15T00:56:39.941Z,41.87
2017-10-15T00:59:07.563Z,40.67
2017-10-15T01:01:35.859Z,44.63
2017-10-15T01:04:03.920Z,42.20
2017-10-15T01:06:31.399Z,44.37
2017-10-15T01:08:58.853Z,39.90
2017-10-15T01:11:26.402Z,39.60
2017-10-15T01:13:53.963Z,40.47
2017-10-15T01:16:21.443Z,37.40
2017-10-15T01:18:49.043Z,40.63
2017-10-15T01:21:16.554Z,39.87
2017-10-15T01:23:44.038Z,44.10
2017-10-15T01:26:11.589Z,41.42
2017-10-15T01:28:39.212Z,44.80
2017-10-15T01:31:06.789Z,42.00
2017-10-15T01:33:34.694Z,39.07
2017-10-15T01:36:02.396Z,43.87
2017-10-15T01:38:29.901Z,38.90
2017-10-15T01:40:57.422Z,43.47
2017-10-15T01:43:24.940Z,43.97
2017-10-15T01:45:52.494Z,43.10
2017-10-15T01:48:20.710Z,43.25
2017-10-15T01:50:48.439Z,45.47
2017-10-15T01:53:16.024Z,47.40
2017-10-15T01:55:43.866Z,50.40
2017-10-15T01:58:11.621Z,47.50
2017-10-15T02:00:39.181Z,47.57
2017-10-15T02:03:07.190Z,48.40
2017-10-15T02:05:34.755Z,43.33
2017-10-15T02:08:02.285Z,49.70
2017-10-15T02:10:29.884Z,44.70
2017-10-15T02:12:57.412Z,42.07
2017-10-15T02:15:24.858Z,46.97
2017-10-15T02:17:52.424Z,44.00
2017-10-15T02:20:19.891Z,48.00
2017-10-15T02:22:47.425Z,42.90
2017-10-15T02:25:15.300Z,42.80
2017-10-15T02:27:42.940Z,44.77
2017-10-15T02:30:10.454Z,41.30
2017-10-15T02:32:38.777Z,43.60
2017-10-15T02:35:06.383Z,44.40
2017-10-15T02:37:34.153Z,43.77
2017-10-15T02:40:01.681Z,41.63
2017-10-15T02:42:29.166Z,39.17
2017-10-15T02:44:56.692Z,41.53
2017-10-15T02:47:24.347Z,42.00
2017-10-15T02:49:51.838Z,36.70
2017-10-15T02:52:19.351Z,43.87
2017-10-15T02:54:46.997Z,43.20
2017-10-15T02:57:14.470Z,40.03
2017-10-15T02:59:41.970Z,44.90
2017-10-15T03:02:09.796Z,49.05
2017-10-15T03:04:37.387Z,45.30
2017-10-15T03:07:04.927Z,52.97
2017-10-15T03:09:33.142Z,54.97
2017-10-15T03:12:00.849Z,51.07
2017-10-15T03:14:28.418Z,58.20
2017-10-15T03:16:56.022Z,48.27
2017-10-15T03:19:23.498Z,46.50
2017-10-15T03:21:50.997Z,43.90
2017-10-15T03:24:18.873Z,54.80
2017-10-15T03:26:46.352Z,47.35
2017-10-15T03:29:13.897Z,56.10
2017-10-15T03:31:41.652Z,62.97
2017-10-15T03:34:09.183Z,51.63
2017-10-15T03:36:36.759Z,56.37
2017-10-15T03:39:04.723Z,54.00
2017-10-15T03:41:32.399Z,59.03
2017-10-15T03:44:00.025Z,53.60
2017-10-15T03:46:27.518Z,62.43
2017-10-15T03:48:55.039Z,55.30
2017-10-15T03:51:22.550Z,59.73
2017-10-15T03:53:50.115Z,74.97
2017-10-15T03:56:17.576Z,61.63
2017-10-15T03:58:45.108Z,56.57
2017-10-15T04:01:12.770Z,50.77
2017-10-15T04:03:40.284Z,45.90
2017-10-15T04:06:07.948Z,52.47
2017-10-15T04:08:35.548Z,58.47
2017-10-15T04:11:03.220Z,58.37
2017-10-15T04:13:30.672Z,54.77
2017-10-15T04:15:58.203Z,56.37
2017-10-15T04:18:25.871Z,60.63
2017-10-15T04:20:53.444Z,57.57
2017-10-15T04:23:20.968Z,64.87
2017-10-15T04:25:48.443Z,63.00
2017-10-15T04:28:15.915Z,56.58
2017-10-15T04:30:43.916Z,60.03
2017-10-15T04:33:11.368Z,58.20
2017-10-15T04:35:38.939Z,55.97
2017-10-15T04:38:06.470Z,58.20
2017-10-15T04:40:33.928Z,66.30
2017-10-15T04:43:01.381Z,64.37
2017-10-15T04:45:29.653Z,55.70
2017-10-15T04:47:57.131Z,64.80
2017-10-15T04:50:24.589Z,68.00
2017-10-15T04:52:52.538Z,67.30
2017-10-15T04:55:20.016Z,65.33
2017-10-15T04:57:47.548Z,57.37
2017-10-15T05:00:15.094Z,55.60
2017-10-15T05:02:42.571Z,48.63
2017-10-15T05:05:10.036Z,49.47
2017-10-15T05:07:37.602Z,52.60
2017-10-15T05:10:05.819Z,49.10
2017-10-15T05:12:33.308Z,59.23
2017-10-15T05:15:01.276Z,55.83
2017-10-15T05:17:28.847Z,49.73
2017-10-15T05:19:56.325Z,48.23
2017-10-15T05:22:23.854Z,49.93
2017-10-15T05:24:51.311Z,52.30
2017-10-15T05:27:18.878Z,49.47
2017-10-15T05:29:46.427Z,57.03
2017-10-15T05:32:13.898Z,55.30
2017-10-15T05:34:41.424Z,62.03
2017-10-15T05:37:09.300Z,53.27
2017-10-15T05:39:36.884Z,50.27
2017-10-15T05:42:04.429Z,53.47
2017-10-15T05:44:31.992Z,50.17
2017-10-15T05:46:59.512Z,57.47
2017-10-15T05:49:27.131Z,55.50
2017-10-15T05:51:55.051Z,47.57
2017-10-15T05:54:22.529Z,48.30
2017-10-15T05:56:50.020Z,53.27
2017-10-15T05:59:18.274Z,55.70
2017-10-15T06:01:45.778Z,49.50
2017-10-15T06:04:13.277Z,52.30
2017-10-15T06:06:41.140Z,46.33
2017-10-15T06:09:08.743Z,52.07
2017-10-15T06:11:36.297Z,51.87
2017-10-15T06:14:03.820Z,47.20
2017-10-15T06:16:31.321Z,45.73
2017-10-15T06:18:58.861Z,40.93
2017-10-15T06:21:26.428Z,44.77
2017-10-15T06:23:53.984Z,44.73
2017-10-15T06:26:21.581Z,40.53
2017-10-15T06:28:49.242Z,40.97
2017-10-15T06:31:16.733Z,43.07
2017-10-15T06:33:44.345Z,43.27
2017-10-15T06:36:11.911Z,45.77
2017-10-15T06:38:39.649Z,47.00
2017-10-15T06:41:07.107Z,45.90
2017-10-15T06:43:34.691Z,43.00
2017-10-15T06:46:02.223Z,42.47
2017-10-15T06:48:30.116Z,44.37
2017-10-15T06:50:57.734Z,43.80
2017-10-15T06:53:25.211Z,49.67
2017-10-15T06:55:59.585Z,42.67
2017-10-15T07:34:34.377Z,31.97
2017-10-15T07:37:07.723Z,35.03
2017-10-15T07:39:35.323Z,34.10
2017-10-15T07:42:03.062Z,33.50
2017-10-15T07:44:30.978Z,31.50
2017-10-15T07:46:58.737Z,29.30
2017-10-15T07:49:26.756Z,31.60
2017-10-15T07:51:54.514Z,27.37
2017-10-15T07:54:22.553Z,27.70
2017-10-15T07:56:51.124Z,26.07
2017-10-15T07:59:18.738Z,26.52
2017-10-15T08:01:46.991Z,28.53
2017-10-15T08:04:14.528Z,27.73
2017-10-15T08:06:42.397Z,29.00
2017-10-15T08:09:10.426Z,27.10
2017-10-15T08:11:37.958Z,26.17
2017-10-15T08:14:05.809Z,28.70
2017-10-15T08:16:33.367Z,26.10
2017-10-15T08:19:00.894Z,28.90
2017-10-15T08:21:28.520Z,26.73
2017-10-15T08:23:56.217Z,27.73
2017-10-15T08:26:23.865Z,29.63
2017-10-15T08:28:51.664Z,26.60
2017-10-15T08:31:19.928Z,27.48
2017-10-15T08:33:47.469Z,27.00
2017-10-15T08:36:15.734Z,27.00
2017-10-15T08:38:43.746Z,27.60
2017-10-15T08:41:13.315Z,27.47
2017-10-15T08:43:41.866Z,28.90
2017-10-15T08:46:09.384Z,27.43
2017-10-15T08:48:37.215Z,27.77
2017-10-15T08:51:06.362Z,27.47
2017-10-15T08:53:35.143Z,25.53
2017-10-15T08:56:07.336Z,25.40
2017-10-15T08:58:35.906Z,27.27
2017-10-15T09:01:03.459Z,25.33
2017-10-15T09:03:31.128Z,25.73
2017-10-15T09:05:59.643Z,25.77
2017-10-15T09:08:27.118Z,25.33
2017-10-15T09:10:55.703Z,25.00
2017-10-15T09:13:23.335Z,24.40
2017-10-15T09:15:50.996Z,24.00
2017-10-15T09:18:18.526Z,26.20
2017-10-15T09:20:46.620Z,24.80
2017-10-15T09:23:14.260Z,23.73
2017-10-15T09:25:41.694Z,23.60
2017-10-15T09:28:09.647Z,23.10
2017-10-15T09:30:37.254Z,24.20
2017-10-15T09:33:04.784Z,22.07
2017-10-15T09:35:32.347Z,25.33
2017-10-15T09:37:59.980Z,23.10
2017-10-15T09:40:27.504Z,22.80
2017-10-15T09:42:55.115Z,23.40
2017-10-15T09:45:24.689Z,24.20
2017-10-15T09:47:52.238Z,22.70
2017-10-15T09:50:20.218Z,23.10
2017-10-15T09:52:48.555Z,23.00
2017-10-15T09:55:16.060Z,22.48
2017-10-15T09:57:43.708Z,22.93
2017-10-15T10:00:11.258Z,23.90
2017-10-15T10:02:38.900Z,24.20
2017-10-15T10:05:06.594Z,23.60
2017-10-15T10:07:34.095Z,24.90
2017-10-15T10:10:01.725Z,22.83
2017-10-15T10:12:29.376Z,23.13
2017-10-15T10:14:57.000Z,23.83
2017-10-15T10:17:24.560Z,23.58
2017-10-15T10:19:52.188Z,23.25
2017-10-15T10:22:19.836Z,22.98
2017-10-15T10:24:47.374Z,24.03
2017-10-15T10:27:14.925Z,23.77
2017-10-15T10:29:42.549Z,24.20
2017-10-15T10:32:10.162Z,23.75
2017-10-15T10:34:37.764Z,23.63
2017-10-15T10:37:05.402Z,23.10
2017-10-15T10:39:32.995Z,23.90
2017-10-15T10:42:01.209Z,22.70
2017-10-15T10:44:28.836Z,23.90
2017-10-15T10:46:56.497Z,23.30
2017-10-15T10:49:24.284Z,22.93
2017-10-15T10:51:51.824Z,23.30
2017-10-15T10:54:19.598Z,25.50
2017-10-15T10:56:47.482Z,24.30
2017-10-15T10:59:15.132Z,22.93
2017-10-15T11:01:42.715Z,23.47
2017-10-15T11:04:10.224Z,24.35
2017-10-15T11:06:39.957Z,24.90
2017-10-15T11:09:08.252Z,25.83
2017-10-15T11:11:36.057Z,23.83
2017-10-15T11:14:03.660Z,22.73
2017-10-15T11:16:32.078Z,23.17
2017-10-15T11:18:59.751Z,23.57
2017-10-15T11:21:28.463Z,22.67
2017-10-15T11:23:56.070Z,22.60
2017-10-15T11:26:23.632Z,21.83
2017-10-15T11:28:51.391Z,23.57
2017-10-15T11:31:19.462Z,25.40
2017-10-15T11:33:47.686Z,21.47
2017-10-15T11:36:15.270Z,19.75
2017-10-15T11:41:31.844Z,20.53
2017-10-15T11:43:59.298Z,20.23
2017-10-15T11:46:27.156Z,20.00
2017-10-15T11:48:54.795Z,18.97
2017-10-15T11:51:23.905Z,20.57
2017-10-15T11:53:51.449Z,18.40
2017-10-15T11:56:19.371Z,18.00
2017-10-15T11:58:47.706Z,17.80
2017-10-15T12:01:15.473Z,17.63
2017-10-15T12:03:43.922Z,16.10
2017-10-15T12:06:11.502Z,16.27
2017-10-15T12:08:39.051Z,16.57
2017-10-15T12:11:07.554Z,15.30
2017-10-15T12:13:35.255Z,15.80
2017-10-15T12:16:03.973Z,15.23
2017-10-15T12:18:31.559Z,15.57
2017-10-15T12:23:33.298Z,16.90
2017-10-15T12:26:00.890Z,16.23
2017-10-15T12:28:28.541Z,14.73
2017-10-15T12:30:56.601Z,14.10
2017-10-15T12:33:24.134Z,14.50
2017-10-15T12:35:51.628Z,13.40
2017-10-15T12:38:19.313Z,11.40
2017-10-15T12:40:47.048Z,12.47
2017-10-15T12:43:14.624Z,11.13
2017-10-15T12:45:42.216Z,11.93
2017-10-15T12:48:09.728Z,11.03
2017-10-15T12:50:37.272Z,10.60
2017-10-15T12:53:04.782Z,9.97
2017-10-15T12:55:32.269Z,9.90
2017-10-15T12:57:59.763Z,8.67
2017-10-15T13:00:27.357Z,9.40
2017-10-15T13:02:54.970Z,8.40
2017-10-15T13:05:22.464Z,7.90
2017-10-15T13:07:50.077Z,6.90
2017-10-15T13:10:17.642Z,8.93
2017-10-15T13:12:45.191Z,7.77
2017-10-15T13:15:13.758Z,7.30
2017-10-15T13:17:41.323Z,5.97
2017-10-15T13:20:08.828Z,6.20
2017-10-15T13:22:36.731Z,6.67
2017-10-15T13:25:04.347Z,6.53
2017-10-15T13:27:32.893Z,6.77
2017-10-15T13:30:00.411Z,6.00
2017-10-15T13:32:30.976Z,5.97
2017-10-15T13:34:58.563Z,6.20
2017-10-15T13:37:26.183Z,6.50
2017-10-15T13:39:53.886Z,5.90
2017-10-15T13:42:21.980Z,5.43
2017-10-15T13:44:49.453Z,5.47
2017-10-15T13:47:16.955Z,5.03
2017-10-15T13:49:44.595Z,6.10
2017-10-15T13:52:12.103Z,5.78
2017-10-15T13:54:39.613Z,6.07
2017-10-15T13:57:07.111Z,5.97
2017-10-15T13:59:34.820Z,5.60
2017-10-15T14:02:02.329Z,5.90
2017-10-15T14:04:29.775Z,5.10
2017-10-15T14:06:59.601Z,5.00
2017-10-15T14:09:27.081Z,5.43
2017-10-15T14:11:54.695Z,5.50
2017-10-15T14:14:22.240Z,5.03
2017-10-15T14:16:49.750Z,5.90
2017-10-15T14:19:17.213Z,29.60
2017-10-15T14:21:45.235Z,11.40
2017-10-15T14:24:12.740Z,8.57
2017-10-15T14:26:40.308Z,7.10
2017-10-15T14:29:07.889Z,6.53
2017-10-15T14:31:35.389Z,5.80
2017-10-15T14:34:02.884Z,6.07
2017-10-15T14:36:30.726Z,5.93
2017-10-15T14:38:58.269Z,6.13
2017-10-15T14:41:25.809Z,5.33
2017-10-15T14:43:53.459Z,5.93
2017-10-15T14:46:21.069Z,5.45
2017-10-15T14:48:48.633Z,9.63
2017-10-15T14:51:16.210Z,5.87
2017-10-15T14:53:43.636Z,5.63
2017-10-15T14:56:11.508Z,5.80
2017-10-15T14:58:39.771Z,5.50
2017-10-15T15:01:07.351Z,6.10
2017-10-15T15:03:35.135Z,5.77
2017-10-15T15:06:02.857Z,7.40
2017-10-15T15:08:30.284Z,6.70
2017-10-15T15:10:58.175Z,6.37
2017-10-15T15:13:25.952Z,6.67
2017-10-15T15:15:53.648Z,5.10
2017-10-15T15:18:21.369Z,5.70
2017-10-15T15:20:49.242Z,5.60
2017-10-15T15:23:17.675Z,5.37
2017-10-15T15:25:45.203Z,5.57
2017-10-15T15:28:12.923Z,5.10
2017-10-15T15:30:40.404Z,5.67
2017-10-15T15:33:07.874Z,6.17
2017-10-15T15:35:35.418Z,5.30
2017-10-15T15:38:04.784Z,5.00
2017-10-15T15:40:32.254Z,5.20
2017-10-15T15:42:59.887Z,5.63
2017-10-15T15:45:27.585Z,6.00
2017-10-15T15:47:55.141Z,5.83
2017-10-15T15:50:23.165Z,5.67
2017-10-15T15:52:50.650Z,5.90
2017-10-15T15:55:18.134Z,6.53
2017-10-15T15:57:46.385Z,5.90
2017-10-15T16:00:13.926Z,5.60
2017-10-15T16:02:41.571Z,6.67
2017-10-15T16:05:09.675Z,5.60
2017-10-15T16:07:37.257Z,5.37
2017-10-15T16:10:05.701Z,5.85
2017-10-15T16:12:33.862Z,5.90
2017-10-15T16:15:01.479Z,6.10
2017-10-15T16:17:29.055Z,6.20
2017-10-15T16:19:56.605Z,7.03
2017-10-15T16:22:24.211Z,7.50
2017-10-15T16:24:51.937Z,7.63
2017-10-15T16:27:19.578Z,7.07
2017-10-15T16:29:47.666Z,7.87
2017-10-15T16:32:15.293Z,7.53
2017-10-15T16:34:42.850Z,7.53
2017-10-15T16:37:10.406Z,9.50
2017-10-15T16:39:38.758Z,8.70
2017-10-15T16:42:07.636Z,8.23
2017-10-15T16:44:36.532Z,8.73
2017-10-15T16:47:05.579Z,8.60
2017-10-15T16:49:35.713Z,9.10
2017-10-15T16:52:04.543Z,9.27
2017-10-15T16:54:32.069Z,10.60
2017-10-15T16:56:59.796Z,10.17
2017-10-15T16:59:29.462Z,10.90
2017-10-15T17:01:57.043Z,11.80
2017-10-15T17:04:24.570Z,12.33
2017-10-15T17:06:52.137Z,12.30
2017-10-15T17:09:21.744Z,12.30
2017-10-15T17:11:52.378Z,11.25
2017-10-15T17:14:19.895Z,12.95
2017-10-15T17:16:47.547Z,12.10
2017-10-15T17:19:15.127Z,11.50
2017-10-15T17:21:42.613Z,10.60
2017-10-15T17:24:10.201Z,12.02
2017-10-15T17:26:37.712Z,12.40
2017-10-15T17:29:05.311Z,15.03
2017-10-15T17:31:32.856Z,15.10
2017-10-15T17:34:00.842Z,13.87
2017-10-15T17:36:28.394Z,13.83
2017-10-15T17:38:55.953Z,16.33
2017-10-15T17:41:23.558Z,17.20
2017-10-15T17:43:51.161Z,16.20
2017-10-15T17:46:18.691Z,17.63
2017-10-15T17:48:46.350Z,18.47
2017-10-15T17:51:13.951Z,17.90
2017-10-15T17:53:41.471Z,17.57
2017-10-15T17:56:09.117Z,17.30
2017-10-15T17:58:36.606Z,17.47
2017-10-15T18:01:04.170Z,18.17
2017-10-15T18:03:32.025Z,16.77
2017-10-15T18:05:59.555Z,17.87
2017-10-15T18:08:27.116Z,20.80
2017-10-15T18:10:55.289Z,19.33
2017-10-15T18:13:22.740Z,20.48
2017-10-15T18:15:50.250Z,16.73
2017-10-15T18:18:18.529Z,17.07
2017-10-15T18:20:46.009Z,20.90
2017-10-15T18:23:13.612Z,19.57
2017-10-15T18:25:41.256Z,18.17
2017-10-15T18:28:09.028Z,17.90
2017-10-15T18:30:36.585Z,17.93
2017-10-15T18:33:04.440Z,16.40
2017-10-15T18:35:31.976Z,20.23
2017-10-15T18:37:59.516Z,19.37
2017-10-15T18:40:27.342Z,19.27
2017-10-15T18:42:54.916Z,20.30
2017-10-15T18:45:22.529Z,18.90
2017-10-15T18:47:50.284Z,20.90
2017-10-15T18:50:17.789Z,16.00
2017-10-15T18:52:46.203Z,12.90
2017-10-15T18:55:13.984Z,14.00
2017-10-15T18:57:41.616Z,12.30
2017-10-15T19:00:09.166Z,10.50
2017-10-15T19:02:36.817Z,10.10
2017-10-15T19:05:04.398Z,11.03
2017-10-15T19:07:31.865Z,12.37
2017-10-15T19:09:59.385Z,14.30
2017-10-15T19:12:26.955Z,14.10
2017-10-15T19:14:54.486Z,14.83
2017-10-15T19:17:22.017Z,16.10
2017-10-15T19:19:49.486Z,14.33
2017-10-15T19:22:17.076Z,14.13
2017-10-15T19:24:44.732Z,14.63
2017-10-15T19:27:12.238Z,14.37
2017-10-15T19:29:39.761Z,13.50
2017-10-15T19:32:07.637Z,14.07
2017-10-15T19:34:35.097Z,14.57
2017-10-15T19:37:02.646Z,14.83
2017-10-15T19:39:30.188Z,14.83
2017-10-15T19:41:57.764Z,16.00
2017-10-15T19:44:25.263Z,12.60
2017-10-15T19:46:53.420Z,11.17
2017-10-15T19:49:20.916Z,11.07
2017-10-15T19:51:48.460Z,11.40
2017-10-15T19:54:16.057Z,11.15
2017-10-15T19:56:43.545Z,12.67
2017-10-15T19:59:11.172Z,12.00
2017-10-15T20:01:38.732Z,11.60
2017-10-15T20:04:06.215Z,12.17
2017-10-15T20:06:33.766Z,11.97
2017-10-15T20:09:01.961Z,11.30
2017-10-15T20:11:29.506Z,12.10
2017-10-15T20:13:56.990Z,11.30
2017-10-15T20:16:24.528Z,10.63
2017-10-15T20:18:52.073Z,10.30
2017-10-15T20:21:19.571Z,11.87
2017-10-15T20:23:47.168Z,10.87
2017-10-15T20:26:14.655Z,10.10
2017-10-15T20:28:42.133Z,12.27
2017-10-15T20:31:10.454Z,10.80
2017-10-15T20:33:37.984Z,10.77
2017-10-15T20:36:05.464Z,12.27
2017-10-15T20:38:33.094Z,11.40
2017-10-15T20:41:01.052Z,10.90
2017-10-15T20:43:28.530Z,11.50
2017-10-15T20:45:56.555Z,13.87
2017-10-15T20:48:24.104Z,12.23
2017-10-15T20:50:51.688Z,11.60
2017-10-15T20:53:19.455Z,11.57
2017-10-15T20:55:46.933Z,10.40
2017-10-15T20:58:14.494Z,10.57
2017-10-15T21:00:42.412Z,11.23
2017-10-15T21:03:10.111Z,12.47
2017-10-15T21:05:37.567Z,12.48
2017-10-15T21:08:07.755Z,11.82
2017-10-15T21:10:35.198Z,9.50
2017-10-15T21:13:02.755Z,10.45
2017-10-15T21:15:30.365Z,11.70
2017-10-15T21:17:57.797Z,10.90
2017-10-15T21:20:25.258Z,11.20
2017-10-15T21:22:53.841Z,10.63
2017-10-15T21:25:21.356Z,9.90
2017-10-15T21:27:48.896Z,10.43
2017-10-15T21:30:16.831Z,11.53
2017-10-15T21:32:44.279Z,11.83
2017-10-15T21:35:11.725Z,10.70
2017-10-15T21:37:39.646Z,11.20
2017-10-15T21:40:07.138Z,11.70
2017-10-15T21:42:34.950Z,10.87
2017-10-15T21:45:02.643Z,10.83
2017-10-15T21:47:30.274Z,11.57
2017-10-15T21:49:57.849Z,10.00
2017-10-15T21:52:25.764Z,10.53
2017-10-15T21:54:53.233Z,11.17
2017-10-15T21:57:20.767Z,12.20
2017-10-15T21:59:48.286Z,11.40
2017-10-15T22:02:15.751Z,9.70
2017-10-15T22:04:43.233Z,9.57
2017-10-15T22:07:11.220Z,10.57
2017-10-15T22:09:38.723Z,10.10
2017-10-15T22:12:06.268Z,9.97
2017-10-15T22:14:33.769Z,9.63
2017-10-15T22:17:01.237Z,11.77
2017-10-15T22:19:28.698Z,12.17
2017-10-15T22:22:01.700Z,10.47
2017-10-15T22:24:29.233Z,10.50
2017-10-15T22:26:56.829Z,10.10
2017-10-15T22:29:24.351Z,10.20
2017-10-15T22:31:51.951Z,10.37
2017-10-15T22:34:19.608Z,10.50
2017-10-15T22:36:47.497Z,12.80
2017-10-15T22:39:15.198Z,11.20
2017-10-15T22:41:42.909Z,10.63
2017-10-15T22:44:10.667Z,11.20
2017-10-15T22:46:38.219Z,11.37
2017-10-15T22:49:05.872Z,12.07
2017-10-15T22:51:33.373Z,10.73
2017-10-15T22:54:00.834Z,10.70
2017-10-15T22:56:28.316Z,11.10
2017-10-15T22:58:55.913Z,10.50
2017-10-15T23:01:23.361Z,10.47
2017-10-15T23:03:50.951Z,10.73
2017-10-15T23:06:18.604Z,9.50
2017-10-15T23:08:46.170Z,11.17
2017-10-15T23:11:13.779Z,9.70
2017-10-15T23:13:41.387Z,10.87
2017-10-15T23:16:08.922Z,11.00
2017-10-15T23:18:36.407Z,11.70
2017-10-15T23:21:05.224Z,11.87
2017-10-15T23:23:32.735Z,12.83
2017-10-15T23:26:00.298Z,15.77
2017-10-15T23:28:27.786Z,14.30
2017-10-15T23:30:55.303Z,13.07
2017-10-15T23:33:22.803Z,13.10
2017-10-15T23:35:50.849Z,13.00
2017-10-15T23:38:18.352Z,15.25
2017-10-15T23:40:45.840Z,14.67
2017-10-15T23:43:13.662Z,12.83
2017-10-15T23:45:41.128Z,13.37
2017-10-15T23:48:08.649Z,12.67
2017-10-15T23:50:36.173Z,11.97
2017-10-15T23:53:03.716Z,11.50
2017-10-15T23:55:31.241Z,11.30
2017-10-15T23:57:59.169Z,11.63
